ETHF/FRZ METAR and TAF weather

Enter ICAO airport designator
Station Type Date Time Source
ETHF METAR 2019/06/26 21:20 UTC NOAA

ETHF 262120Z 36008KT 9999 24/17 Q1024 BLU+


Station Type Date Time Source
ETHF Decoded METAR 2019/06/26 21:20 UTC NOAA

Fritzlar, Germany (ETHF) 51-07N 009-17E 181M
Jun 26, 2019 - 05:20 PM EDT / 2019.06.26 2120 UTC
Wind: from the N (360 degrees) at 9 MPH (8 KT):0
Visibility: greater than 7 mile(s):0
Temperature: 75 F (24 C)
Dew Point: 62 F (17 C)
Relative Humidity: 64%
Pressure (altimeter): 30.24 in. Hg (1024 hPa)
ob: ETHF 262120Z 36008KT 9999 24/17 Q1024 BLU+
cycle: 21

Station Type Date Time Source
ETHF TAF 2018/05/18 05:37 UTC NOAA

TAF ETHF 180407Z 1805/1818 35006KT 9999 NSW BKN020
TEMPO 1805/1808 33005KT 9999 NSW BKN012
BECMG 1809/1811 36008KT 9999 NSW SCT030 BKN180

Example: see airport list